sensor_id;sensor_type;location;lat;lon;timestamp;temperature;humidity
42365;DHT22;28498;54.400;18.566;2023-06-10T00:02:28;16.00;99.90
42365;DHT22;28498;54.400;18.566;2023-06-10T00:04:55;16.00;99.90
42365;DHT22;28498;54.400;18.566;2023-06-10T00:07:24;15.90;99.90
42365;DHT22;28498;54.400;18.566;2023-06-10T00:09:51;15.90;99.90
42365;DHT22;28498;54.400;18.566;2023-06-10T00:12:18;15.80;99.90
42365;DHT22;28498;54.400;18.566;2023-06-10T00:14:47;15.80;99.90
42365;DHT22;28498;54.400;18.566;2023-06-10T00:17:17;15.90;99.90
42365;DHT22;28498;54.400;18.566;2023-06-10T00:19:44;16.00;99.90
42365;DHT22;28498;54.400;18.566;2023-06-10T00:22:14;15.90;99.90
42365;DHT22;28498;54.400;18.566;2023-06-10T00:24:41;15.90;99.90
42365;DHT22;28498;54.400;18.566;2023-06-10T00:27:08;15.90;99.90
42365;DHT22;28498;54.400;18.566;2023-06-10T00:29:36;15.80;99.90
42365;DHT22;28498;54.400;18.566;2023-06-10T00:32:03;15.80;99.90
42365;DHT22;28498;54.400;18.566;2023-06-10T00:34:31;15.70;99.90
42365;DHT22;28498;54.400;18.566;2023-06-10T00:36:58;15.70;99.90
42365;DHT22;28498;54.400;18.566;2023-06-10T00:39:26;15.60;99.90
42365;DHT22;28498;54.400;18.566;2023-06-10T00:41:53;15.50;99.90
42365;DHT22;28498;54.400;18.566;2023-06-10T00:44:20;15.50;1.00
42365;DHT22;28498;54.400;18.566;2023-06-10T00:46:47;15.40;1.00
42365;DHT22;28498;54.400;18.566;2023-06-10T00:49:14;15.40;1.00
42365;DHT22;28498;54.400;18.566;2023-06-10T00:51:41;15.40;1.00
42365;DHT22;28498;54.400;18.566;2023-06-10T00:54:08;15.40;1.00
42365;DHT22;28498;54.400;18.566;2023-06-10T00:56:36;15.40;1.00
42365;DHT22;28498;54.400;18.566;2023-06-10T00:59:03;15.40;1.00
42365;DHT22;28498;54.400;18.566;2023-06-10T01:01:31;15.30;1.00
42365;DHT22;28498;54.400;18.566;2023-06-10T01:03:59;15.30;1.00
42365;DHT22;28498;54.400;18.566;2023-06-10T01:11:43;15.20;1.00
42365;DHT22;28498;54.400;18.566;2023-06-10T01:14:11;15.20;1.00
42365;DHT22;28498;54.400;18.566;2023-06-10T01:16:41;15.10;1.00
42365;DHT22;28498;54.400;18.566;2023-06-10T01:19:08;15.20;1.00
42365;DHT22;28498;54.400;18.566;2023-06-10T01:21:37;15.10;1.00
42365;DHT22;28498;54.400;18.566;2023-06-10T01:24:06;15.10;1.00
42365;DHT22;28498;54.400;18.566;2023-06-10T01:26:38;15.10;1.00
42365;DHT22;28498;54.400;18.566;2023-06-10T01:29:16;15.10;1.00
42365;DHT22;28498;54.400;18.566;2023-06-10T01:34:18;15.10;1.00
42365;DHT22;28498;54.400;18.566;2023-06-10T01:36:48;15.00;1.00
42365;DHT22;28498;54.400;18.566;2023-06-10T01:39:23;14.90;1.00
42365;DHT22;28498;54.400;18.566;2023-06-10T01:41:52;14.90;1.00
42365;DHT22;28498;54.400;18.566;2023-06-10T01:44:23;14.80;1.00
42365;DHT22;28498;54.400;18.566;2023-06-10T01:46:50;14.80;1.00
42365;DHT22;28498;54.400;18.566;2023-06-10T01:49:17;14.80;1.00
42365;DHT22;28498;54.400;18.566;2023-06-10T01:51:44;14.80;1.00
42365;DHT22;28498;54.400;18.566;2023-06-10T01:54:11;14.80;1.00
42365;DHT22;28498;54.400;18.566;2023-06-10T01:56:39;14.80;1.00
42365;DHT22;28498;54.400;18.566;2023-06-10T01:59:06;14.70;1.00
42365;DHT22;28498;54.400;18.566;2023-06-10T02:01:33;14.70;1.00
42365;DHT22;28498;54.400;18.566;2023-06-10T02:04:00;14.70;1.00
42365;DHT22;28498;54.400;18.566;2023-06-10T02:06:27;14.70;1.00
42365;DHT22;28498;54.400;18.566;2023-06-10T02:08:54;14.70;1.00
42365;DHT22;28498;54.400;18.566;2023-06-10T02:11:21;14.70;1.00
42365;DHT22;28498;54.400;18.566;2023-06-10T02:13:48;14.70;1.00
42365;DHT22;28498;54.400;18.566;2023-06-10T02:16:15;14.70;1.00
42365;DHT22;28498;54.400;18.566;2023-06-10T02:18:44;14.70;1.00
42365;DHT22;28498;54.400;18.566;2023-06-10T02:21:11;14.70;1.00
42365;DHT22;28498;54.400;18.566;2023-06-10T02:23:38;14.70;1.00
42365;DHT22;28498;54.400;18.566;2023-06-10T02:26:05;14.70;1.00
42365;DHT22;28498;54.400;18.566;2023-06-10T02:28:32;14.80;1.00
42365;DHT22;28498;54.400;18.566;2023-06-10T02:30:59;14.70;1.00
42365;DHT22;28498;54.400;18.566;2023-06-10T02:33:27;14.70;1.00
42365;DHT22;28498;54.400;18.566;2023-06-10T02:35:55;14.80;1.00
42365;DHT22;28498;54.400;18.566;2023-06-10T02:38:22;14.80;1.00
42365;DHT22;28498;54.400;18.566;2023-06-10T02:40:49;14.70;1.00
42365;DHT22;28498;54.400;18.566;2023-06-10T02:43:16;14.80;1.00
42365;DHT22;28498;54.400;18.566;2023-06-10T02:45:43;14.80;1.00
42365;DHT22;28498;54.400;18.566;2023-06-10T02:48:10;14.80;1.00
42365;DHT22;28498;54.400;18.566;2023-06-10T02:50:37;14.90;1.00
42365;DHT22;28498;54.400;18.566;2023-06-10T02:53:07;14.90;1.00
42365;DHT22;28498;54.400;18.566;2023-06-10T02:55:34;15.00;1.00
42365;DHT22;28498;54.400;18.566;2023-06-10T02:58:02;14.90;1.00
42365;DHT22;28498;54.400;18.566;2023-06-10T03:00:29;14.90;1.00
42365;DHT22;28498;54.400;18.566;2023-06-10T03:02:57;15.00;1.00
42365;DHT22;28498;54.400;18.566;2023-06-10T03:05:25;15.10;1.00
42365;DHT22;28498;54.400;18.566;2023-06-10T03:07:52;15.20;1.00
42365;DHT22;28498;54.400;18.566;2023-06-10T03:10:19;15.20;99.90
42365;DHT22;28498;54.400;18.566;2023-06-10T03:12:46;15.30;99.90
42365;DHT22;28498;54.400;18.566;2023-06-10T03:15:13;15.30;99.90
42365;DHT22;28498;54.400;18.566;2023-06-10T03:17:41;15.40;99.90
42365;DHT22;28498;54.400;18.566;2023-06-10T03:20:09;15.60;99.90
42365;DHT22;28498;54.400;18.566;2023-06-10T03:22:37;15.80;99.90
42365;DHT22;28498;54.400;18.566;2023-06-10T03:25:05;16.00;99.90
42365;DHT22;28498;54.400;18.566;2023-06-10T03:27:33;16.10;99.90
42365;DHT22;28498;54.400;18.566;2023-06-10T03:30:02;16.40;79.60
42365;DHT22;28498;54.400;18.566;2023-06-10T03:32:29;16.60;1.00
42365;DHT22;28498;54.400;18.566;2023-06-10T03:34:57;16.60;1.00
42365;DHT22;28498;54.400;18.566;2023-06-10T03:37:25;16.60;99.90
42365;DHT22;28498;54.400;18.566;2023-06-10T03:39:52;16.60;1.00
42365;DHT22;28498;54.400;18.566;2023-06-10T03:42:19;17.00;13.70
42365;DHT22;28498;54.400;18.566;2023-06-10T03:44:46;17.10;99.90
42365;DHT22;28498;54.400;18.566;2023-06-10T03:47:13;17.20;99.90
42365;DHT22;28498;54.400;18.566;2023-06-10T03:49:40;17.20;99.90
42365;DHT22;28498;54.400;18.566;2023-06-10T03:52:07;17.30;99.90
42365;DHT22;28498;54.400;18.566;2023-06-10T03:54:34;17.30;99.90
42365;DHT22;28498;54.400;18.566;2023-06-10T03:57:02;17.40;99.90
42365;DHT22;28498;54.400;18.566;2023-06-10T03:59:30;17.90;1.00
42365;DHT22;28498;54.400;18.566;2023-06-10T04:01:57;18.10;99.90
42365;DHT22;28498;54.400;18.566;2023-06-10T04:04:24;18.20;99.90
42365;DHT22;28498;54.400;18.566;2023-06-10T04:06:51;18.30;77.30
42365;DHT22;28498;54.400;18.566;2023-06-10T04:09:18;18.20;15.10
42365;DHT22;28498;54.400;18.566;2023-06-10T04:11:45;18.10;1.00
42365;DHT22;28498;54.400;18.566;2023-06-10T04:14:13;18.00;1.00
42365;DHT22;28498;54.400;18.566;2023-06-10T04:16:40;17.60;1.00
42365;DHT22;28498;54.400;18.566;2023-06-10T04:19:09;17.70;1.00
42365;DHT22;28498;54.400;18.566;2023-06-10T04:21:36;17.80;1.00
42365;DHT22;28498;54.400;18.566;2023-06-10T04:24:03;17.80;99.90
42365;DHT22;28498;54.400;18.566;2023-06-10T04:26:31;18.10;99.90
42365;DHT22;28498;54.400;18.566;2023-06-10T04:28:58;18.30;99.90
42365;DHT22;28498;54.400;18.566;2023-06-10T04:31:25;18.30;99.90
42365;DHT22;28498;54.400;18.566;2023-06-10T04:33:52;18.10;99.90
42365;DHT22;28498;54.400;18.566;2023-06-10T04:36:19;18.10;99.90
42365;DHT22;28498;54.400;18.566;2023-06-10T04:38:46;18.60;99.90
42365;DHT22;28498;54.400;18.566;2023-06-10T04:41:13;18.80;99.90
42365;DHT22;28498;54.400;18.566;2023-06-10T04:43:40;19.30;99.90
42365;DHT22;28498;54.400;18.566;2023-06-10T04:46:07;19.70;99.90
42365;DHT22;28498;54.400;18.566;2023-06-10T04:48:35;19.60;64.70
42365;DHT22;28498;54.400;18.566;2023-06-10T04:51:02;19.30;20.70
42365;DHT22;28498;54.400;18.566;2023-06-10T04:53:30;19.10;8.50
42365;DHT22;28498;54.400;18.566;2023-06-10T04:55:57;19.30;1.00
42365;DHT22;28498;54.400;18.566;2023-06-10T04:58:24;18.50;1.00
42365;DHT22;28498;54.400;18.566;2023-06-10T05:00:51;18.00;11.60
42365;DHT22;28498;54.400;18.566;2023-06-10T05:03:18;17.80;29.20
42365;DHT22;28498;54.400;18.566;2023-06-10T05:05:46;17.70;47.60
42365;DHT22;28498;54.400;18.566;2023-06-10T05:08:13;17.60;32.30
42365;DHT22;28498;54.400;18.566;2023-06-10T05:10:40;17.50;53.40
42365;DHT22;28498;54.400;18.566;2023-06-10T05:13:07;17.40;38.50
42365;DHT22;28498;54.400;18.566;2023-06-10T05:15:34;17.30;45.00
42365;DHT22;28498;54.400;18.566;2023-06-10T05:18:01;17.30;47.30
42365;DHT22;28498;54.400;18.566;2023-06-10T05:20:29;17.30;45.90
42365;DHT22;28498;54.400;18.566;2023-06-10T05:22:56;17.50;41.30
42365;DHT22;28498;54.400;18.566;2023-06-10T05:25:25;17.60;24.90
42365;DHT22;28498;54.400;18.566;2023-06-10T05:27:52;17.60;27.00
42365;DHT22;28498;54.400;18.566;2023-06-10T05:30:20;17.50;22.80
42365;DHT22;28498;54.400;18.566;2023-06-10T05:32:48;17.70;25.60
42365;DHT22;28498;54.400;18.566;2023-06-10T05:35:15;17.70;21.60
42365;DHT22;28498;54.400;18.566;2023-06-10T05:37:42;17.50;7.30
42365;DHT22;28498;54.400;18.566;2023-06-10T05:40:10;17.60;18.40
42365;DHT22;28498;54.400;18.566;2023-06-10T05:42:37;17.70;8.80
42365;DHT22;28498;54.400;18.566;2023-06-10T05:45:05;17.70;13.30
42365;DHT22;28498;54.400;18.566;2023-06-10T05:47:34;17.60;39.60
42365;DHT22;28498;54.400;18.566;2023-06-10T05:50:01;17.90;49.00
42365;DHT22;28498;54.400;18.566;2023-06-10T05:52:29;18.00;37.50
42365;DHT22;28498;54.400;18.566;2023-06-10T05:54:56;17.80;35.30
42365;DHT22;28498;54.400;18.566;2023-06-10T05:57:23;17.80;32.70
42365;DHT22;28498;54.400;18.566;2023-06-10T05:59:50;18.00;37.40
42365;DHT22;28498;54.400;18.566;2023-06-10T06:02:17;18.00;23.30
42365;DHT22;28498;54.400;18.566;2023-06-10T06:04:44;17.60;7.50
42365;DHT22;28498;54.400;18.566;2023-06-10T06:07:11;17.70;9.10
42365;DHT22;28498;54.400;18.566;2023-06-10T06:09:39;17.80;13.20
42365;DHT22;28498;54.400;18.566;2023-06-10T06:12:06;17.60;1.00
42365;DHT22;28498;54.400;18.566;2023-06-10T06:14:37;17.40;1.00
42365;DHT22;28498;54.400;18.566;2023-06-10T06:17:06;17.50;3.10
42365;DHT22;28498;54.400;18.566;2023-06-10T06:19:34;17.70;7.10
42365;DHT22;28498;54.400;18.566;2023-06-10T06:22:01;18.00;1.90
42365;DHT22;28498;54.400;18.566;2023-06-10T06:24:28;17.90;11.20
42365;DHT22;28498;54.400;18.566;2023-06-10T06:26:55;18.10;9.40
42365;DHT22;28498;54.400;18.566;2023-06-10T06:29:22;18.30;1.00
42365;DHT22;28498;54.400;18.566;2023-06-10T06:31:49;18.20;1.00
42365;DHT22;28498;54.400;18.566;2023-06-10T06:34:16;17.90;19.40
42365;DHT22;28498;54.400;18.566;2023-06-10T06:36:43;17.90;39.10
42365;DHT22;28498;54.400;18.566;2023-06-10T06:39:10;18.20;55.30
42365;DHT22;28498;54.400;18.566;2023-06-10T06:41:37;18.10;44.30
42365;DHT22;28498;54.400;18.566;2023-06-10T06:44:04;17.90;41.90
42365;DHT22;28498;54.400;18.566;2023-06-10T06:46:32;18.00;66.40
42365;DHT22;28498;54.400;18.566;2023-06-10T06:48:58;17.90;46.70
42365;DHT22;28498;54.400;18.566;2023-06-10T06:51:26;17.90;49.80
42365;DHT22;28498;54.400;18.566;2023-06-10T06:53:53;17.80;34.40
42365;DHT22;28498;54.400;18.566;2023-06-10T06:56:23;17.80;48.50
42365;DHT22;28498;54.400;18.566;2023-06-10T06:58:50;17.80;54.40
42365;DHT22;28498;54.400;18.566;2023-06-10T07:01:17;17.80;53.90
42365;DHT22;28498;54.400;18.566;2023-06-10T07:03:44;17.90;60.70
42365;DHT22;28498;54.400;18.566;2023-06-10T07:06:12;17.90;67.40
42365;DHT22;28498;54.400;18.566;2023-06-10T07:08:40;17.80;66.70
42365;DHT22;28498;54.400;18.566;2023-06-10T07:11:07;17.80;58.30
42365;DHT22;28498;54.400;18.566;2023-06-10T07:13:34;17.80;84.80
42365;DHT22;28498;54.400;18.566;2023-06-10T07:16:01;17.90;53.20
42365;DHT22;28498;54.400;18.566;2023-06-10T07:18:28;17.80;53.30
42365;DHT22;28498;54.400;18.566;2023-06-10T07:20:55;17.90;51.10
42365;DHT22;28498;54.400;18.566;2023-06-10T07:23:22;18.20;45.40
42365;DHT22;28498;54.400;18.566;2023-06-10T07:25:50;18.10;28.20
42365;DHT22;28498;54.400;18.566;2023-06-10T07:28:17;18.20;38.70
42365;DHT22;28498;54.400;18.566;2023-06-10T07:30:44;18.10;35.60
42365;DHT22;28498;54.400;18.566;2023-06-10T07:33:11;17.90;34.10
42365;DHT22;28498;54.400;18.566;2023-06-10T07:35:38;17.90;31.20
42365;DHT22;28498;54.400;18.566;2023-06-10T07:38:05;17.90;24.20
42365;DHT22;28498;54.400;18.566;2023-06-10T07:40:32;18.00;42.10
42365;DHT22;28498;54.400;18.566;2023-06-10T07:43:01;18.20;50.50
42365;DHT22;28498;54.400;18.566;2023-06-10T07:45:28;18.30;49.40
42365;DHT22;28498;54.400;18.566;2023-06-10T07:47:55;18.40;24.00
42365;DHT22;28498;54.400;18.566;2023-06-10T07:50:22;18.10;4.70
42365;DHT22;28498;54.400;18.566;2023-06-10T07:52:49;18.10;3.10
42365;DHT22;28498;54.400;18.566;2023-06-10T07:55:17;18.10;8.30
42365;DHT22;28498;54.400;18.566;2023-06-10T07:57:44;18.00;1.00
42365;DHT22;28498;54.400;18.566;2023-06-10T08:00:11;18.10;1.00
42365;DHT22;28498;54.400;18.566;2023-06-10T08:02:39;18.30;1.00
42365;DHT22;28498;54.400;18.566;2023-06-10T08:05:06;18.20;5.00
42365;DHT22;28498;54.400;18.566;2023-06-10T08:07:34;18.40;15.80
42365;DHT22;28498;54.400;18.566;2023-06-10T08:10:02;18.40;26.30
42365;DHT22;28498;54.400;18.566;2023-06-10T08:12:32;18.40;27.20
42365;DHT22;28498;54.400;18.566;2023-06-10T08:15:00;18.00;54.80
42365;DHT22;28498;54.400;18.566;2023-06-10T08:17:27;18.10;45.40
42365;DHT22;28498;54.400;18.566;2023-06-10T08:19:54;18.20;59.10
42365;DHT22;28498;54.400;18.566;2023-06-10T08:22:21;18.30;57.20
42365;DHT22;28498;54.400;18.566;2023-06-10T08:24:48;18.40;64.60
42365;DHT22;28498;54.400;18.566;2023-06-10T08:27:15;18.20;53.80
42365;DHT22;28498;54.400;18.566;2023-06-10T08:29:42;18.10;72.00
42365;DHT22;28498;54.400;18.566;2023-06-10T08:32:10;17.90;76.10
42365;DHT22;28498;54.400;18.566;2023-06-10T08:34:37;17.90;76.00
42365;DHT22;28498;54.400;18.566;2023-06-10T08:37:04;17.90;52.30
42365;DHT22;28498;54.400;18.566;2023-06-10T08:39:32;18.00;59.70
42365;DHT22;28498;54.400;18.566;2023-06-10T08:42:09;18.10;69.00
42365;DHT22;28498;54.400;18.566;2023-06-10T08:44:37;18.30;82.90
42365;DHT22;28498;54.400;18.566;2023-06-10T08:47:16;18.00;80.50
42365;DHT22;28498;54.400;18.566;2023-06-10T08:49:46;18.00;93.30
42365;DHT22;28498;54.400;18.566;2023-06-10T08:52:20;17.80;96.20
42365;DHT22;28498;54.400;18.566;2023-06-10T08:55:03;17.90;99.90
42365;DHT22;28498;54.400;18.566;2023-06-10T08:57:31;17.90;99.90
42365;DHT22;28498;54.400;18.566;2023-06-10T08:59:58;17.90;99.90
42365;DHT22;28498;54.400;18.566;2023-06-10T09:02:25;18.10;99.90
42365;DHT22;28498;54.400;18.566;2023-06-10T09:04:56;17.60;99.90
42365;DHT22;28498;54.400;18.566;2023-06-10T09:07:24;17.40;99.90
42365;DHT22;28498;54.400;18.566;2023-06-10T09:09:52;17.50;99.90
42365;DHT22;28498;54.400;18.566;2023-06-10T09:12:20;17.20;99.90
42365;DHT22;28498;54.400;18.566;2023-06-10T09:14:47;17.10;99.90
42365;DHT22;28498;54.400;18.566;2023-06-10T09:17:16;17.20;99.90
42365;DHT22;28498;54.400;18.566;2023-06-10T09:19:44;17.60;99.90
42365;DHT22;28498;54.400;18.566;2023-06-10T09:22:12;17.80;99.90
42365;DHT22;28498;54.400;18.566;2023-06-10T09:24:39;17.60;99.90
42365;DHT22;28498;54.400;18.566;2023-06-10T09:27:08;17.60;99.90
42365;DHT22;28498;54.400;18.566;2023-06-10T09:29:51;17.20;99.90
42365;DHT22;28498;54.400;18.566;2023-06-10T09:32:19;17.10;99.90
42365;DHT22;28498;54.400;18.566;2023-06-10T09:34:47;17.40;99.90
42365;DHT22;28498;54.400;18.566;2023-06-10T09:37:23;17.40;99.90
42365;DHT22;28498;54.400;18.566;2023-06-10T09:40:06;17.60;99.90
42365;DHT22;28498;54.400;18.566;2023-06-10T09:42:35;17.60;99.90
42365;DHT22;28498;54.400;18.566;2023-06-10T09:45:04;17.60;99.90
42365;DHT22;28498;54.400;18.566;2023-06-10T09:47:31;17.60;99.90
42365;DHT22;28498;54.400;18.566;2023-06-10T09:49:59;17.70;99.90
42365;DHT22;28498;54.400;18.566;2023-06-10T09:52:28;17.50;99.90
42365;DHT22;28498;54.400;18.566;2023-06-10T09:55:01;17.30;99.90
42365;DHT22;28498;54.400;18.566;2023-06-10T09:57:32;17.40;99.90
42365;DHT22;28498;54.400;18.566;2023-06-10T10:00:09;17.80;99.90
42365;DHT22;28498;54.400;18.566;2023-06-10T10:05:15;17.20;99.90
42365;DHT22;28498;54.400;18.566;2023-06-10T10:07:43;17.40;99.90
42365;DHT22;28498;54.400;18.566;2023-06-10T10:10:12;17.50;99.90
42365;DHT22;28498;54.400;18.566;2023-06-10T10:12:41;17.50;99.90
42365;DHT22;28498;54.400;18.566;2023-06-10T10:15:10;17.40;99.90
42365;DHT22;28498;54.400;18.566;2023-06-10T10:17:49;17.40;99.90
42365;DHT22;28498;54.400;18.566;2023-06-10T10:20:22;17.80;99.90
42365;DHT22;28498;54.400;18.566;2023-06-10T10:22:52;18.10;99.90
42365;DHT22;28498;54.400;18.566;2023-06-10T10:25:29;18.00;99.90
42365;DHT22;28498;54.400;18.566;2023-06-10T10:28:04;17.90;99.90
42365;DHT22;28498;54.400;18.566;2023-06-10T10:30:42;17.90;99.90
42365;DHT22;28498;54.400;18.566;2023-06-10T10:33:09;17.80;99.90
42365;DHT22;28498;54.400;18.566;2023-06-10T10:35:39;18.10;99.90
42365;DHT22;28498;54.400;18.566;2023-06-10T10:38:07;18.10;99.90
42365;DHT22;28498;54.400;18.566;2023-06-10T10:40:35;18.30;99.90
42365;DHT22;28498;54.400;18.566;2023-06-10T10:43:03;18.40;99.90
42365;DHT22;28498;54.400;18.566;2023-06-10T10:45:33;18.50;99.90
42365;DHT22;28498;54.400;18.566;2023-06-10T10:48:08;18.20;99.90
42365;DHT22;28498;54.400;18.566;2023-06-10T10:50:39;18.50;99.90
42365;DHT22;28498;54.400;18.566;2023-06-10T10:53:07;18.70;99.90
42365;DHT22;28498;54.400;18.566;2023-06-10T10:55:34;18.80;99.90
42365;DHT22;28498;54.400;18.566;2023-06-10T10:58:07;18.70;99.90
42365;DHT22;28498;54.400;18.566;2023-06-10T11:00:43;18.60;99.90
42365;DHT22;28498;54.400;18.566;2023-06-10T11:03:15;18.60;99.90
42365;DHT22;28498;54.400;18.566;2023-06-10T11:05:48;18.30;99.90
42365;DHT22;28498;54.400;18.566;2023-06-10T11:11:26;18.10;99.90
42365;DHT22;28498;54.400;18.566;2023-06-10T11:14:06;18.20;99.90
42365;DHT22;28498;54.400;18.566;2023-06-10T11:16:41;18.40;99.90
42365;DHT22;28498;54.400;18.566;2023-06-10T11:19:31;18.30;99.90
42365;DHT22;28498;54.400;18.566;2023-06-10T11:22:03;18.60;99.90
42365;DHT22;28498;54.400;18.566;2023-06-10T11:24:30;18.50;99.90
42365;DHT22;28498;54.400;18.566;2023-06-10T11:32:31;18.20;99.90
42365;DHT22;28498;54.400;18.566;2023-06-10T11:34:59;18.30;99.90
42365;DHT22;28498;54.400;18.566;2023-06-10T11:37:26;18.40;99.90
42365;DHT22;28498;54.400;18.566;2023-06-10T11:39:55;18.30;99.90
42365;DHT22;28498;54.400;18.566;2023-06-10T11:42:22;18.20;99.90
42365;DHT22;28498;54.400;18.566;2023-06-10T11:44:50;18.40;99.90
42365;DHT22;28498;54.400;18.566;2023-06-10T11:47:18;18.30;99.90
42365;DHT22;28498;54.400;18.566;2023-06-10T11:49:51;18.30;99.90
42365;DHT22;28498;54.400;18.566;2023-06-10T11:52:30;18.30;99.90
42365;DHT22;28498;54.400;18.566;2023-06-10T11:54:59;18.50;99.90
42365;DHT22;28498;54.400;18.566;2023-06-10T11:57:26;18.80;99.90
42365;DHT22;28498;54.400;18.566;2023-06-10T11:59:53;18.80;99.90
42365;DHT22;28498;54.400;18.566;2023-06-10T12:02:20;18.80;99.90
42365;DHT22;28498;54.400;18.566;2023-06-10T12:04:49;18.60;99.90
42365;DHT22;28498;54.400;18.566;2023-06-10T12:07:19;18.30;99.90
42365;DHT22;28498;54.400;18.566;2023-06-10T12:09:47;17.90;99.90
42365;DHT22;28498;54.400;18.566;2023-06-10T12:12:14;17.80;99.90
42365;DHT22;28498;54.400;18.566;2023-06-10T12:14:56;18.10;99.90
42365;DHT22;28498;54.400;18.566;2023-06-10T12:20:05;17.80;99.90
42365;DHT22;28498;54.400;18.566;2023-06-10T12:22:37;17.80;99.90
42365;DHT22;28498;54.400;18.566;2023-06-10T12:25:05;17.70;99.90
42365;DHT22;28498;54.400;18.566;2023-06-10T12:27:41;17.80;99.90
42365;DHT22;28498;54.400;18.566;2023-06-10T12:30:20;17.70;99.90
42365;DHT22;28498;54.400;18.566;2023-06-10T12:32:47;17.70;99.90
42365;DHT22;28498;54.400;18.566;2023-06-10T12:35:17;17.90;99.90
42365;DHT22;28498;54.400;18.566;2023-06-10T12:40:30;17.90;99.90
42365;DHT22;28498;54.400;18.566;2023-06-10T12:42:59;18.30;99.90
42365;DHT22;28498;54.400;18.566;2023-06-10T12:45:36;18.20;99.90
42365;DHT22;28498;54.400;18.566;2023-06-10T12:48:23;17.70;99.90
42365;DHT22;28498;54.400;18.566;2023-06-10T12:50:57;17.70;99.90
42365;DHT22;28498;54.400;18.566;2023-06-10T12:53:25;17.80;99.90
42365;DHT22;28498;54.400;18.566;2023-06-10T12:55:55;18.10;99.90
42365;DHT22;28498;54.400;18.566;2023-06-10T12:58:22;18.00;99.90
42365;DHT22;28498;54.400;18.566;2023-06-10T13:00:50;18.20;99.90
42365;DHT22;28498;54.400;18.566;2023-06-10T13:03:20;18.60;99.90
42365;DHT22;28498;54.400;18.566;2023-06-10T13:05:47;18.70;99.90
42365;DHT22;28498;54.400;18.566;2023-06-10T13:08:15;18.40;99.90
42365;DHT22;28498;54.400;18.566;2023-06-10T13:10:42;18.70;99.90
42365;DHT22;28498;54.400;18.566;2023-06-10T13:13:09;18.50;99.90
42365;DHT22;28498;54.400;18.566;2023-06-10T13:15:37;18.20;99.90
42365;DHT22;28498;54.400;18.566;2023-06-10T13:18:08;18.20;99.90
42365;DHT22;28498;54.400;18.566;2023-06-10T13:20:35;18.30;99.90
42365;DHT22;28498;54.400;18.566;2023-06-10T13:23:03;18.20;99.90
42365;DHT22;28498;54.400;18.566;2023-06-10T13:25:30;18.50;99.90
42365;DHT22;28498;54.400;18.566;2023-06-10T13:27:57;18.30;99.90
42365;DHT22;28498;54.400;18.566;2023-06-10T13:30:24;18.70;99.90
42365;DHT22;28498;54.400;18.566;2023-06-10T13:32:51;18.90;99.90
42365;DHT22;28498;54.400;18.566;2023-06-10T13:35:18;19.50;99.90
42365;DHT22;28498;54.400;18.566;2023-06-10T13:37:45;19.40;81.90
42365;DHT22;28498;54.400;18.566;2023-06-10T13:40:12;19.70;80.30
42365;DHT22;28498;54.400;18.566;2023-06-10T13:42:40;20.00;64.40
42365;DHT22;28498;54.400;18.566;2023-06-10T13:45:07;20.50;63.00
42365;DHT22;28498;54.400;18.566;2023-06-10T13:47:34;20.70;48.80
42365;DHT22;28498;54.400;18.566;2023-06-10T13:50:02;20.80;26.40
42365;DHT22;28498;54.400;18.566;2023-06-10T13:52:29;20.70;8.70
42365;DHT22;28498;54.400;18.566;2023-06-10T13:54:56;20.80;1.00
42365;DHT22;28498;54.400;18.566;2023-06-10T13:57:23;20.80;1.00
42365;DHT22;28498;54.400;18.566;2023-06-10T13:59:50;21.00;1.00
42365;DHT22;28498;54.400;18.566;2023-06-10T14:02:17;20.90;1.00
42365;DHT22;28498;54.400;18.566;2023-06-10T14:04:44;20.80;1.00
42365;DHT22;28498;54.400;18.566;2023-06-10T14:07:11;21.10;1.00
42365;DHT22;28498;54.400;18.566;2023-06-10T14:09:38;21.40;1.00
42365;DHT22;28498;54.400;18.566;2023-06-10T14:12:06;21.00;1.00
42365;DHT22;28498;54.400;18.566;2023-06-10T14:14:33;20.60;1.00
42365;DHT22;28498;54.400;18.566;2023-06-10T14:17:00;20.50;1.00
42365;DHT22;28498;54.400;18.566;2023-06-10T14:19:27;20.90;1.00
42365;DHT22;28498;54.400;18.566;2023-06-10T14:21:54;21.40;1.00
42365;DHT22;28498;54.400;18.566;2023-06-10T14:24:22;21.20;1.00
42365;DHT22;28498;54.400;18.566;2023-06-10T14:26:50;21.10;1.00
42365;DHT22;28498;54.400;18.566;2023-06-10T14:29:17;21.00;1.00
42365;DHT22;28498;54.400;18.566;2023-06-10T14:31:46;21.00;99.90
42365;DHT22;28498;54.400;18.566;2023-06-10T14:34:13;20.90;99.90
42365;DHT22;28498;54.400;18.566;2023-06-10T14:36:40;20.30;99.90
42365;DHT22;28498;54.400;18.566;2023-06-10T14:39:07;20.30;99.90
42365;DHT22;28498;54.400;18.566;2023-06-10T14:41:34;20.60;99.90
42365;DHT22;28498;54.400;18.566;2023-06-10T14:44:01;20.90;99.90
42365;DHT22;28498;54.400;18.566;2023-06-10T14:46:28;20.90;99.90
42365;DHT22;28498;54.400;18.566;2023-06-10T14:48:55;21.00;99.90
42365;DHT22;28498;54.400;18.566;2023-06-10T14:51:22;21.20;99.90
42365;DHT22;28498;54.400;18.566;2023-06-10T14:53:49;20.80;99.90
42365;DHT22;28498;54.400;18.566;2023-06-10T14:56:17;20.90;99.90
42365;DHT22;28498;54.400;18.566;2023-06-10T14:58:44;21.30;99.90
42365;DHT22;28498;54.400;18.566;2023-06-10T15:01:11;21.20;99.90
42365;DHT22;28498;54.400;18.566;2023-06-10T15:03:39;21.50;99.90
42365;DHT22;28498;54.400;18.566;2023-06-10T15:06:06;21.60;99.90
42365;DHT22;28498;54.400;18.566;2023-06-10T15:08:33;21.40;99.90
42365;DHT22;28498;54.400;18.566;2023-06-10T15:11:00;21.80;99.90
42365;DHT22;28498;54.400;18.566;2023-06-10T15:13:29;22.10;99.90
42365;DHT22;28498;54.400;18.566;2023-06-10T15:15:56;22.10;99.90
42365;DHT22;28498;54.400;18.566;2023-06-10T15:18:25;22.00;99.90
42365;DHT22;28498;54.400;18.566;2023-06-10T15:20:52;21.80;99.90
42365;DHT22;28498;54.400;18.566;2023-06-10T15:23:19;22.50;99.90
42365;DHT22;28498;54.400;18.566;2023-06-10T15:25:46;22.60;99.90
42365;DHT22;28498;54.400;18.566;2023-06-10T15:28:14;22.50;99.90
42365;DHT22;28498;54.400;18.566;2023-06-10T15:30:41;22.00;99.90
42365;DHT22;28498;54.400;18.566;2023-06-10T15:33:08;22.40;99.90
42365;DHT22;28498;54.400;18.566;2023-06-10T15:35:35;22.10;99.90
42365;DHT22;28498;54.400;18.566;2023-06-10T15:38:02;21.80;99.90
42365;DHT22;28498;54.400;18.566;2023-06-10T15:40:29;22.00;99.90
42365;DHT22;28498;54.400;18.566;2023-06-10T15:42:56;22.10;99.90
42365;DHT22;28498;54.400;18.566;2023-06-10T15:45:24;22.20;99.90
42365;DHT22;28498;54.400;18.566;2023-06-10T15:47:51;22.90;99.90
42365;DHT22;28498;54.400;18.566;2023-06-10T15:50:18;22.60;99.90
42365;DHT22;28498;54.400;18.566;2023-06-10T15:52:45;22.20;99.90